createdAt,value
2024-02-19T00:00:01.369Z,99.99
2024-02-19T00:01:01.389Z,99.99
2024-02-19T00:02:01.370Z,99.99
2024-02-19T00:03:01.285Z,99.99
2024-02-19T00:04:01.394Z,99.99
2024-02-19T00:05:01.312Z,99.99
2024-02-19T00:06:01.272Z,99.99
2024-02-19T00:07:01.331Z,99.99
2024-02-19T00:08:01.364Z,99.99
2024-02-19T00:09:01.232Z,99.99
2024-02-19T00:10:01.287Z,99.99
2024-02-19T00:11:01.254Z,99.99
2024-02-19T00:12:01.239Z,99.99
2024-02-19T00:13:01.263Z,99.99
2024-02-19T00:14:01.223Z,99.99
2024-02-19T00:15:01.172Z,99.99
2024-02-19T00:16:01.183Z,99.99
2024-02-19T00:17:01.145Z,99.99
2024-02-19T00:18:01.217Z,99.99
2024-02-19T00:19:01.230Z,99.99
2024-02-19T00:20:01.190Z,99.99
2024-02-19T00:21:01.118Z,99.99
2024-02-19T00:22:01.201Z,99.95
2024-02-19T00:23:01.084Z,99.95
2024-02-19T00:24:01.065Z,99.84
2024-02-19T00:25:01.177Z,99.84
2024-02-19T00:26:01.043Z,99.95
2024-02-19T00:27:01.043Z,99.84
2024-02-19T00:28:01.146Z,99.89
2024-02-19T00:29:01.020Z,99.99
2024-02-19T00:30:01.017Z,99.99
2024-02-19T00:31:01.040Z,99.99
2024-02-19T00:32:00.978Z,99.99
2024-02-19T00:33:01.157Z,99.99
2024-02-19T00:34:01.209Z,99.99
2024-02-19T00:35:00.953Z,99.99
2024-02-19T00:36:00.949Z,99.99
2024-02-19T00:37:00.951Z,99.99
2024-02-19T00:38:00.905Z,99.99
2024-02-19T00:39:00.897Z,99.95
2024-02-19T00:40:00.911Z,99.95
2024-02-19T00:41:00.874Z,99.84
2024-02-19T00:42:00.881Z,99.54
2024-02-19T00:43:00.900Z,99.54
2024-02-19T00:44:00.840Z,99.63
2024-02-19T00:45:00.838Z,99.63
2024-02-19T00:46:00.858Z,99.63
2024-02-19T00:47:00.818Z,99.63
2024-02-19T00:48:00.886Z,99.63
2024-02-19T00:49:00.889Z,99.54
2024-02-19T00:50:01.172Z,99.43
2024-02-19T00:51:00.758Z,99.43
2024-02-19T00:52:00.797Z,99.54
2024-02-19T00:53:00.751Z,99.43
2024-02-19T00:54:00.747Z,99.33
2024-02-19T00:55:00.821Z,99.22
2024-02-19T00:56:00.722Z,99.22
2024-02-19T00:57:00.693Z,99.12
2024-02-19T00:58:00.779Z,99.12
2024-02-19T00:59:00.669Z,99.12
2024-02-19T01:00:00.692Z,99.02
2024-02-19T01:01:00.847Z,98.92
2024-02-19T01:02:00.775Z,98.92
2024-02-19T01:03:00.633Z,98.92
2024-02-19T01:04:00.691Z,98.71
2024-02-19T01:05:01.057Z,98.71
2024-02-19T01:06:00.617Z,98.61
2024-02-19T01:07:00.640Z,98.51
2024-02-19T01:08:00.587Z,98.30
2024-02-19T01:09:00.566Z,98.41
2024-02-19T01:10:00.627Z,98.30
2024-02-19T01:11:00.632Z,98.41
2024-02-19T01:12:00.535Z,98.41
2024-02-19T01:13:00.597Z,98.41
2024-02-19T03:05:51.260Z,99.95
2024-02-19T03:06:41.084Z,99.99
2024-02-19T03:07:40.866Z,99.99
2024-02-19T03:08:40.291Z,99.99
2024-02-19T03:09:39.987Z,99.99
2024-02-19T03:10:39.870Z,99.99
2024-02-19T03:11:40.813Z,99.99
2024-02-19T03:12:41.451Z,99.99
2024-02-19T03:13:39.986Z,99.99
2024-02-19T03:14:39.862Z,99.99
2024-02-19T03:15:39.858Z,99.99
2024-02-19T03:16:40.072Z,99.99
2024-02-19T03:17:40.754Z,99.99
2024-02-19T03:18:40.064Z,99.99
2024-02-19T03:19:40.135Z,99.99
2024-02-19T03:20:39.808Z,99.99
2024-02-19T03:21:43.626Z,99.99
2024-02-19T03:22:40.237Z,99.99
2024-02-19T03:23:41.446Z,99.99
2024-02-19T03:24:40.344Z,99.99
2024-02-19T03:25:44.799Z,99.99
2024-02-19T03:26:41.694Z,99.99
2024-02-19T03:27:41.540Z,99.99
2024-02-19T03:30:19.600Z,99.99
2024-02-19T03:30:31.511Z,99.99
2024-02-19T03:31:26.354Z,99.99
2024-02-19T03:32:28.852Z,99.99
2024-02-19T03:33:27.158Z,99.99
2024-02-19T03:34:26.968Z,99.99
2024-02-19T03:35:36.708Z,99.99
2024-02-19T03:36:28.761Z,99.99
2024-02-19T03:37:28.740Z,99.99
2024-02-19T03:38:26.412Z,99.99
2024-02-19T03:39:30.166Z,99.99
2024-02-19T03:40:26.394Z,99.99
2024-02-19T03:41:25.757Z,99.99
2024-02-19T03:42:25.766Z,99.99
2024-02-19T03:43:30.975Z,99.99
2024-02-19T03:44:25.656Z,99.99
2024-02-19T06:15:43.248Z,97.15
2024-02-19T06:16:30.454Z,97.36
2024-02-19T06:45:03.382Z,96.52
2024-02-19T06:49:05.802Z,96.72
2024-02-19T06:49:12.454Z,97.03
2024-02-19T06:50:11.806Z,97.03
2024-02-19T06:51:11.684Z,97.24
2024-02-19T06:52:11.726Z,97.86
2024-02-19T06:53:11.688Z,98.68
2024-02-19T06:54:11.669Z,98.84
2024-02-19T06:55:11.729Z,98.74
2024-02-19T06:56:11.673Z,98.63
2024-02-19T06:57:11.626Z,98.74
2024-02-19T06:58:11.670Z,98.63
2024-02-19T06:59:11.622Z,98.22
2024-02-19T07:00:11.871Z,98.02
2024-02-19T07:01:11.676Z,98.12
2024-02-19T07:02:11.638Z,98.33
2024-02-19T07:03:11.676Z,98.63
2024-02-19T07:14:42.749Z,98.53
2024-02-19T07:16:53.122Z,98.63
2024-02-19T07:17:54.107Z,99.05
2024-02-19T07:18:54.246Z,99.25
2024-02-19T07:19:54.249Z,99.46
2024-02-19T07:20:54.067Z,99.87
2024-02-19T07:21:54.063Z,99.99
2024-02-19T07:22:54.041Z,99.77
2024-02-19T07:23:54.047Z,99.46
2024-02-19T07:25:02.972Z,99.25
2024-02-19T07:25:56.766Z,99.35
2024-02-19T07:26:54.017Z,99.66
2024-02-19T07:27:53.998Z,99.87
2024-02-19T07:28:53.963Z,99.56
2024-02-19T07:29:53.977Z,99.46
2024-02-19T07:30:53.972Z,99.66
2024-02-19T07:31:53.918Z,99.77
2024-02-19T07:32:54.037Z,99.66
2024-02-19T07:33:53.965Z,99.87
2024-02-19T07:34:53.921Z,99.66
2024-02-19T07:35:53.916Z,99.99
2024-02-19T07:36:54.117Z,99.99
2024-02-19T07:37:53.864Z,99.99
2024-02-19T07:38:53.858Z,99.99
2024-02-19T07:39:53.867Z,99.99
2024-02-19T07:40:53.853Z,99.99
2024-02-19T07:41:53.812Z,99.99
2024-02-19T07:42:53.882Z,99.99
2024-02-19T07:43:53.821Z,99.99
2024-02-19T07:44:53.789Z,99.99
2024-02-19T07:45:53.837Z,99.99
2024-02-19T07:46:53.815Z,99.99
2024-02-19T07:47:53.845Z,99.99
2024-02-19T07:48:53.914Z,99.99
2024-02-19T07:49:53.775Z,99.99
2024-02-19T07:50:53.759Z,99.99
2024-02-19T07:51:53.757Z,99.99
2024-02-19T07:52:53.746Z,99.99
2024-02-19T07:53:53.695Z,99.99
2024-02-19T07:54:53.747Z,99.99
2024-02-19T07:55:53.675Z,99.99
2024-02-19T07:56:53.658Z,99.99
2024-02-19T07:57:53.715Z,99.99
2024-02-19T07:58:53.639Z,99.99
2024-02-19T07:59:53.622Z,99.99
2024-02-19T08:00:53.684Z,99.99
2024-02-19T08:01:53.720Z,99.99
2024-02-19T08:02:53.615Z,99.99
2024-02-19T08:03:53.696Z,99.99
2024-02-19T08:04:53.801Z,99.99
2024-02-19T08:05:53.603Z,99.99
2024-02-19T08:06:55.166Z,99.99
2024-02-19T08:07:53.594Z,99.99
2024-02-19T08:08:53.549Z,99.99
2024-02-19T08:09:53.550Z,99.99
2024-02-19T08:10:53.537Z,99.99
2024-02-19T08:11:53.582Z,99.99
2024-02-19T08:12:53.642Z,99.99
2024-02-19T08:13:53.644Z,99.99
2024-02-19T08:14:53.483Z,99.99
2024-02-19T08:15:53.519Z,99.99
2024-02-19T08:16:53.453Z,99.99
2024-02-19T08:17:53.575Z,99.99
2024-02-19T08:18:53.605Z,99.99
2024-02-19T08:19:53.460Z,99.99
2024-02-19T08:20:53.432Z,99.99
2024-02-19T08:21:53.450Z,99.99
2024-02-19T08:22:53.387Z,99.99
2024-02-19T08:23:53.379Z,99.99
2024-02-19T08:24:53.419Z,99.99
2024-02-19T08:25:53.385Z,99.99
2024-02-19T08:26:53.360Z,99.99
2024-02-19T08:27:55.406Z,99.99
2024-02-19T08:28:53.324Z,99.99
2024-02-19T08:29:53.324Z,99.99
2024-02-19T08:30:53.359Z,99.91
2024-02-19T08:31:53.296Z,99.91
2024-02-19T08:32:53.315Z,99.91
2024-02-19T08:33:53.452Z,99.81
2024-02-19T08:34:53.342Z,99.71
2024-02-19T08:35:53.269Z,99.60
2024-02-19T08:36:53.335Z,99.30
2024-02-19T08:37:53.239Z,98.68
2024-02-19T08:38:53.322Z,98.37
2024-02-19T08:39:53.248Z,98.88
2024-02-19T08:40:53.215Z,98.79
2024-02-19T08:41:53.181Z,98.88
2024-02-19T08:42:53.261Z,98.16
2024-02-19T08:43:53.162Z,98.06
2024-02-19T08:44:53.175Z,98.06
2024-02-19T08:45:53.217Z,98.16
2024-02-19T08:46:53.133Z,98.27
2024-02-19T08:47:53.204Z,97.86
2024-02-19T08:48:53.213Z,97.75
2024-02-19T08:49:53.173Z,98.27
2024-02-19T08:50:53.202Z,98.27
2024-02-19T08:51:53.107Z,98.06
2024-02-19T08:52:53.063Z,98.27
2024-02-19T08:53:59.029Z,97.44
2024-02-19T08:54:53.090Z,96.83
2024-02-19T08:55:53.067Z,96.83
2024-02-19T08:56:53.028Z,96.83
2024-02-19T08:57:53.061Z,96.72
2024-02-19T08:58:53.031Z,96.31
2024-02-19T08:59:53.009Z,96.11
2024-02-19T09:00:53.094Z,95.70
2024-02-19T09:01:53.084Z,95.59
2024-02-19T09:02:52.993Z,95.90
2024-02-19T09:03:53.040Z,96.11
2024-02-19T09:04:53.049Z,96.21
2024-02-19T09:05:52.989Z,96.31
2024-02-19T09:06:53.122Z,95.28
2024-02-19T09:07:52.931Z,94.77
2024-02-19T09:08:52.933Z,95.14
2024-02-19T09:09:52.957Z,94.83
2024-02-19T09:10:52.904Z,94.42
2024-02-19T09:11:52.912Z,94.31
2024-02-19T09:12:52.902Z,93.80
2024-02-19T09:13:52.868Z,93.59
2024-02-19T09:14:52.848Z,93.29
2024-02-19T09:15:52.874Z,93.70
2024-02-19T09:16:52.813Z,93.90
2024-02-19T09:17:52.880Z,93.59
2024-02-19T09:18:52.875Z,93.90
2024-02-19T09:19:52.866Z,93.59
2024-02-19T09:20:52.805Z,92.87
2024-02-19T09:21:52.835Z,92.57
2024-02-19T09:22:52.745Z,94.42
2024-02-19T09:23:52.725Z,92.97
2024-02-19T09:24:52.770Z,92.57
2024-02-19T09:25:52.711Z,93.08
2024-02-19T09:26:52.760Z,92.77
2024-02-19T09:27:52.691Z,93.39
2024-02-19T09:28:52.793Z,93.49
2024-02-19T09:29:52.678Z,94.01
2024-02-19T09:30:52.756Z,92.97
2024-02-19T09:31:52.670Z,93.54
2024-02-19T09:32:52.655Z,93.70
2024-02-19T09:33:52.708Z,93.80
2024-02-19T09:34:52.699Z,94.21
2024-02-19T09:35:52.603Z,93.90
2024-02-19T09:36:52.649Z,93.90
2024-02-19T09:37:52.593Z,94.11
2024-02-19T09:38:52.648Z,94.21
2024-02-19T09:39:52.597Z,92.97
2024-02-19T09:40:52.586Z,93.18
2024-02-19T09:41:52.570Z,93.70
2024-02-19T09:42:52.575Z,93.18
2024-02-19T09:43:52.528Z,93.18
2024-02-19T09:44:52.526Z,93.18
2024-02-19T09:45:52.563Z,92.77
2024-02-19T09:46:52.544Z,93.08
2024-02-19T09:47:52.578Z,93.23
2024-02-19T09:48:52.807Z,92.97
2024-02-19T09:49:52.629Z,92.50
2024-02-19T09:50:52.478Z,92.10
2024-02-19T09:51:52.477Z,92.87
2024-02-19T09:52:52.433Z,93.59
2024-02-19T09:53:52.432Z,93.18
2024-02-19T09:54:52.465Z,92.77
2024-02-19T09:55:52.442Z,93.18
2024-02-19T09:56:52.448Z,92.77
2024-02-19T09:57:52.458Z,91.74
2024-02-19T09:58:52.405Z,90.09
2024-02-19T09:59:52.367Z,90.81
2024-02-19T10:00:52.407Z,91.53
2024-02-19T10:01:52.615Z,92.57
2024-02-19T10:02:52.346Z,92.77
2024-02-19T10:03:52.364Z,93.12
2024-02-19T10:04:52.435Z,93.64
2024-02-19T10:05:52.355Z,94.15
2024-02-19T10:06:52.441Z,94.67
2024-02-19T10:07:52.331Z,94.98
2024-02-19T10:08:52.266Z,95.18
2024-02-19T10:09:52.292Z,95.43
2024-02-19T10:10:52.237Z,95.84
2024-02-19T10:11:52.246Z,96.15
2024-02-19T10:12:52.280Z,96.77
2024-02-19T10:13:52.206Z,96.88
2024-02-19T10:14:52.218Z,96.77
2024-02-19T10:15:52.203Z,96.50
2024-02-19T10:16:52.190Z,96.09
2024-02-19T10:17:52.215Z,96.61
2024-02-19T10:18:52.263Z,96.71
2024-02-19T10:19:52.224Z,96.71
2024-02-19T10:20:52.271Z,96.20
2024-02-19T10:21:52.204Z,96.09
2024-02-19T10:22:52.116Z,96.20
2024-02-19T10:23:52.118Z,96.20
2024-02-19T10:24:52.155Z,96.71
2024-02-19T10:25:52.099Z,95.99
2024-02-19T10:26:52.085Z,96.50
2024-02-19T10:27:52.067Z,95.78
2024-02-19T10:28:52.084Z,96.61
2024-02-19T10:29:52.027Z,96.61
2024-02-19T10:30:52.074Z,95.58
2024-02-19T10:31:52.016Z,95.23
2024-02-19T10:32:52.086Z,95.27
2024-02-19T10:33:52.124Z,94.96
2024-02-19T10:34:52.043Z,94.81
2024-02-19T10:35:51.979Z,95.12
2024-02-19T10:36:52.035Z,95.12
2024-02-19T10:37:51.953Z,95.33
2024-02-19T10:38:51.942Z,95.23
2024-02-19T10:39:51.974Z,95.74
2024-02-19T10:40:51.955Z,95.23
2024-02-19T10:41:51.941Z,95.23
2024-02-19T10:42:51.933Z,95.53
2024-02-19T10:43:51.902Z,95.64
2024-02-19T10:44:51.879Z,95.74
2024-02-19T10:45:51.879Z,95.95
2024-02-19T10:46:51.864Z,95.33
2024-02-19T10:47:51.974Z,95.43
2024-02-19T10:48:51.888Z,95.43
2024-02-19T10:49:51.837Z,95.23
2024-02-19T10:50:51.810Z,95.64
2024-02-19T10:51:51.961Z,95.64
2024-02-19T10:52:51.791Z,95.43
2024-02-19T10:53:51.770Z,95.43
2024-02-19T10:54:58.715Z,95.43
2024-02-19T10:55:55.875Z,95.43
2024-02-19T10:56:51.868Z,96.05
2024-02-19T10:57:51.783Z,95.95
2024-02-19T10:58:51.737Z,96.11
2024-02-19T10:59:51.719Z,95.90
2024-02-19T11:00:51.763Z,95.33
2024-02-19T11:01:51.949Z,95.43
2024-02-19T11:02:51.701Z,95.12
2024-02-19T11:03:51.733Z,95.33
2024-02-19T11:04:51.916Z,95.64
2024-02-19T11:05:51.740Z,95.84
2024-02-19T11:06:51.704Z,95.95
2024-02-19T11:07:51.647Z,95.23
2024-02-19T11:08:51.640Z,95.28
2024-02-19T11:09:51.626Z,95.02
2024-02-19T11:10:51.812Z,94.30
2024-02-19T11:11:51.684Z,94.20
2024-02-19T11:12:51.629Z,94.67
2024-02-19T11:13:51.563Z,94.36
2024-02-19T11:14:51.553Z,94.36
2024-02-19T11:15:51.564Z,93.84
2024-02-19T11:16:51.541Z,93.23
2024-02-19T11:17:51.574Z,93.49
2024-02-19T11:18:53.965Z,93.59
2024-02-19T11:19:51.542Z,93.80
2024-02-19T11:20:51.500Z,93.59
2024-02-19T11:21:51.557Z,92.77
2024-02-19T11:22:51.483Z,91.85
2024-02-19T11:23:51.482Z,92.57
2024-02-19T11:24:51.463Z,92.87
2024-02-19T11:25:51.423Z,92.87
2024-02-19T11:26:51.434Z,93.55
2024-02-19T11:27:51.482Z,92.97
2024-02-19T11:28:51.407Z,94.07
2024-02-19T11:29:51.424Z,94.01
2024-02-19T11:30:51.395Z,93.80
2024-02-19T11:31:51.400Z,93.70
2024-02-19T11:32:51.424Z,93.90
2024-02-19T11:33:51.397Z,93.14
2024-02-19T11:34:52.444Z,93.65
2024-02-19T11:35:51.433Z,93.96
2024-02-19T11:36:51.362Z,93.96
2024-02-19T11:37:51.324Z,94.17
2024-02-19T11:38:51.304Z,94.48
2024-02-19T11:39:51.359Z,94.58
2024-02-19T11:40:51.289Z,95.20
2024-02-19T11:41:51.274Z,95.40
2024-02-19T11:42:51.332Z,94.48
2024-02-19T11:43:51.244Z,94.78
2024-02-19T11:44:51.237Z,95.09
2024-02-19T11:45:51.253Z,95.71
2024-02-19T11:46:51.219Z,94.99
2024-02-19T11:47:51.267Z,94.99
2024-02-19T11:48:51.287Z,94.78
2024-02-19T11:49:51.238Z,94.78
2024-02-19T11:50:51.168Z,94.89
2024-02-19T11:51:57.689Z,94.89
2024-02-19T11:52:51.203Z,95.61
2024-02-19T11:53:51.141Z,95.50
2024-02-19T11:54:51.196Z,95.40
2024-02-19T11:55:51.118Z,94.37
2024-02-19T11:56:51.103Z,94.27
2024-02-19T11:57:51.120Z,94.48
2024-02-19T11:58:51.102Z,94.99
2024-02-19T11:59:51.074Z,94.78
2024-02-19T12:00:51.130Z,94.37
2024-02-19T12:01:51.145Z,94.58
2024-02-19T12:02:51.072Z,94.78
2024-02-19T12:03:51.045Z,94.99
2024-02-19T12:04:51.036Z,94.48
2024-02-19T12:05:51.079Z,94.54
2024-02-19T12:06:51.038Z,94.54
2024-02-19T12:07:51.156Z,94.12
2024-02-19T12:08:50.995Z,94.12
2024-02-19T12:09:51.007Z,94.02
2024-02-19T12:10:50.991Z,93.92
2024-02-19T12:11:50.952Z,93.92
2024-02-19T12:12:51.008Z,94.12
2024-02-19T12:13:50.927Z,93.71
2024-02-19T12:14:50.912Z,93.61
2024-02-19T12:15:50.925Z,92.38
2024-02-19T12:16:50.892Z,92.89
2024-02-19T12:17:51.026Z,93.71
2024-02-19T12:18:50.951Z,92.58
2024-02-19T12:19:53.346Z,92.64
2024-02-19T12:20:50.849Z,92.69
2024-02-19T12:21:51.106Z,93.05
2024-02-19T12:22:50.831Z,92.85
2024-02-19T12:23:50.845Z,92.33
2024-02-19T12:24:50.821Z,93.05
2024-02-19T12:25:50.797Z,93.05
2024-02-19T12:26:50.799Z,92.74
2024-02-19T12:27:50.818Z,92.64
2024-02-19T12:28:50.781Z,92.85
2024-02-19T12:29:50.760Z,92.64
2024-02-19T12:30:50.782Z,92.23
2024-02-19T12:31:50.743Z,92.80
2024-02-19T12:32:50.803Z,91.99
2024-02-19T12:33:50.899Z,91.57
2024-02-19T12:34:51.030Z,90.95
2024-02-19T12:35:50.843Z,90.75
2024-02-19T12:36:50.771Z,90.08
2024-02-19T12:37:50.721Z,90.14
2024-02-19T12:38:50.677Z,90.48
2024-02-19T12:39:50.692Z,91.00
2024-02-19T12:40:50.694Z,90.65
2024-02-19T12:41:50.663Z,90.75
2024-02-19T12:42:50.628Z,90.55
2024-02-19T12:43:50.629Z,90.75
2024-02-19T12:44:50.597Z,90.65
2024-02-19T12:45:50.612Z,91.06
2024-02-19T12:46:50.576Z,91.57
2024-02-19T12:47:50.646Z,91.16
2024-02-19T12:48:50.632Z,90.95
2024-02-19T12:49:50.611Z,90.75
2024-02-19T12:50:50.532Z,91.37
2024-02-19T12:51:50.545Z,91.57
2024-02-19T12:52:50.580Z,91.67
2024-02-19T12:53:50.514Z,90.85
2024-02-19T12:54:50.557Z,91.06
2024-02-19T12:55:50.501Z,91.06
2024-02-19T12:56:50.477Z,90.24
2024-02-19T12:57:50.514Z,89.83
2024-02-19T12:58:50.461Z,89.99
2024-02-19T12:59:50.445Z,89.27
2024-02-19T13:00:50.521Z,88.24
2024-02-19T13:01:50.499Z,88.66
2024-02-19T13:02:50.476Z,88.14
2024-02-19T13:03:50.422Z,88.45
2024-02-19T13:04:50.660Z,88.35
2024-02-19T13:05:50.478Z,88.41
2024-02-19T13:06:50.474Z,88.31
2024-02-19T13:07:50.397Z,88.92
2024-02-19T13:08:50.378Z,88.82
2024-02-19T13:09:50.369Z,87.79
2024-02-19T13:10:50.312Z,87.70
2024-02-19T13:11:50.361Z,88.24
2024-02-19T13:12:50.324Z,88.86
2024-02-19T13:13:50.319Z,89.27
2024-02-19T13:14:50.272Z,89.89
2024-02-19T15:09:56.050Z,88.06
2024-02-19T15:13:01.854Z,87.85
2024-02-19T15:14:01.692Z,87.76
2024-02-19T15:15:01.866Z,87.96
2024-02-19T15:16:02.328Z,87.55
2024-02-19T15:17:01.425Z,87.14
2024-02-19T15:18:02.883Z,87.65
2024-02-19T15:19:02.455Z,87.04
2024-02-19T15:20:05.669Z,87.34
2024-02-19T15:21:01.848Z,87.24
2024-02-19T15:22:00.982Z,87.24
2024-02-19T15:23:03.079Z,87.04
2024-02-19T15:24:12.200Z,86.83
2024-02-19T15:25:01.262Z,87.14
2024-02-19T15:26:02.914Z,86.93
2024-02-19T15:27:23.222Z,86.42
2024-02-19T15:28:03.185Z,86.63
2024-02-19T15:29:02.990Z,87.04
2024-02-19T15:30:03.361Z,86.11
2024-02-19T15:31:03.067Z,86.22
2024-02-19T15:32:00.810Z,86.83
2024-02-19T15:33:01.184Z,87.45
2024-02-19T15:34:04.069Z,87.04
2024-02-19T15:35:04.282Z,86.83
2024-02-19T15:36:01.321Z,87.10
2024-02-19T15:37:01.382Z,86.48
2024-02-19T15:38:01.153Z,86.90
2024-02-19T15:39:01.983Z,87.10
2024-02-19T15:40:01.748Z,87.61
2024-02-19T15:41:00.411Z,87.61
2024-02-19T15:42:03.006Z,87.24
2024-02-19T15:43:04.339Z,87.24
2024-02-19T15:44:01.013Z,87.41
2024-02-19T15:45:13.685Z,87.34
2024-02-19T15:46:01.389Z,87.24
2024-02-19T15:47:00.641Z,87.34
2024-02-19T15:48:01.217Z,87.45
2024-02-19T15:49:01.090Z,87.65
2024-02-19T15:50:02.053Z,87.82
2024-02-19T15:51:10.773Z,87.55
2024-02-19T15:52:01.265Z,86.99
2024-02-19T15:53:05.730Z,86.90
2024-02-19T15:54:02.178Z,87.20
2024-02-19T15:55:03.206Z,87.41
2024-02-19T15:56:11.292Z,88.12
2024-02-19T15:57:01.863Z,88.53
2024-02-19T15:58:01.702Z,88.94
2024-02-19T15:59:00.843Z,89.56
2024-02-19T16:00:02.056Z,89.60
2024-02-19T16:01:04.519Z,89.70
2024-02-19T16:02:02.125Z,90.01
2024-02-19T16:03:04.398Z,90.01
2024-02-19T16:04:03.227Z,90.52
2024-02-19T16:05:01.810Z,90.87
2024-02-19T16:06:05.602Z,91.18
2024-02-19T16:07:01.026Z,91.49
2024-02-19T16:08:00.993Z,91.80
2024-02-19T16:09:04.337Z,92.10
2024-02-19T16:10:01.941Z,92.21
2024-02-19T16:11:02.825Z,92.10
2024-02-19T16:12:02.149Z,92.00
2024-02-19T16:13:02.734Z,91.90
2024-02-19T16:14:01.349Z,91.90
2024-02-19T16:15:01.265Z,91.69
2024-02-19T16:16:01.721Z,92.00
2024-02-19T16:17:04.555Z,92.00
2024-02-19T16:18:06.098Z,91.80
2024-02-19T16:19:00.306Z,91.49
2024-02-19T16:20:00.649Z,91.69
2024-02-19T16:21:01.141Z,91.42
2024-02-19T16:22:07.494Z,91.74
2024-02-19T16:23:00.984Z,91.33
2024-02-19T16:24:03.456Z,91.53
2024-02-19T16:25:03.212Z,91.53
2024-02-19T16:26:03.089Z,91.42
2024-02-19T16:27:00.932Z,91.84
2024-02-19T16:28:00.678Z,92.04
2024-02-19T16:29:02.343Z,92.35
2024-02-19T16:30:01.110Z,91.84
2024-02-19T16:31:01.388Z,91.74
2024-02-19T16:32:00.066Z,91.63
2024-02-19T16:33:00.090Z,91.84
2024-02-19T16:34:03.908Z,91.33
2024-02-19T16:35:00.972Z,91.49
2024-02-19T16:36:10.536Z,91.69
2024-02-19T16:37:01.627Z,91.59
2024-02-19T16:38:02.352Z,91.59
2024-02-19T16:39:02.385Z,91.28
2024-02-19T16:39:59.402Z,91.28
2024-02-19T16:41:01.011Z,91.49
2024-02-19T16:42:01.256Z,91.80
2024-02-19T16:42:59.840Z,91.59
2024-02-19T16:44:00.361Z,91.49
2024-02-19T16:44:59.537Z,91.38
2024-02-19T16:46:01.622Z,91.69
2024-02-19T16:47:00.404Z,91.49
2024-02-19T16:48:01.320Z,91.90
2024-02-19T16:49:00.272Z,91.80
2024-02-19T16:50:01.105Z,92.00
2024-02-19T16:51:00.085Z,91.90
2024-02-19T16:52:00.024Z,92.00
2024-02-19T16:52:59.737Z,92.21
2024-02-19T16:53:59.972Z,92.41
2024-02-19T16:54:59.874Z,92.31
2024-02-19T16:56:00.044Z,92.41
2024-02-19T16:57:02.157Z,92.61
2024-02-19T16:58:00.278Z,92.76
2024-02-19T16:58:59.974Z,92.61
2024-02-19T17:00:01.416Z,92.86
2024-02-19T17:01:00.047Z,93.02
2024-02-19T17:01:59.916Z,93.17
2024-02-19T17:02:59.302Z,93.17
2024-02-19T17:03:59.164Z,93.17
2024-02-19T17:27:12.661Z,95.68
2024-02-19T17:28:42.440Z,95.89
2024-02-19T19:16:45.305Z,99.99
2024-02-19T19:17:46.398Z,99.99
2024-02-19T19:18:46.266Z,99.99
2024-02-19T19:19:46.148Z,99.99
2024-02-19T19:20:46.059Z,99.99
2024-02-19T19:21:46.168Z,99.99
2024-02-19T19:22:46.050Z,99.99
2024-02-19T19:23:46.503Z,99.99
2024-02-19T19:24:46.015Z,99.99
2024-02-19T19:25:45.968Z,99.99
2024-02-19T19:26:45.962Z,99.99
2024-02-19T19:27:45.992Z,99.99
2024-02-19T19:28:45.965Z,99.99
2024-02-19T19:29:45.915Z,99.99
2024-02-19T19:30:45.952Z,99.99
2024-02-19T19:31:45.923Z,99.99
2024-02-19T19:32:45.940Z,99.99
2024-02-19T19:33:46.009Z,99.99
2024-02-19T19:34:45.992Z,99.99
2024-02-19T19:35:45.868Z,99.99
2024-02-19T19:36:45.878Z,99.99
2024-02-19T19:37:45.881Z,99.99
2024-02-19T19:38:45.839Z,99.99
2024-02-19T19:39:45.840Z,99.99
2024-02-19T19:40:45.815Z,99.99
2024-02-19T19:41:45.798Z,99.99
2024-02-19T19:42:45.832Z,99.99
2024-02-19T19:43:45.793Z,99.99
2024-02-19T19:44:45.817Z,99.99
2024-02-19T19:45:45.888Z,99.99
2024-02-19T19:46:45.803Z,99.99
2024-02-19T19:47:45.793Z,99.99
2024-02-19T19:48:45.878Z,99.99
2024-02-19T19:49:45.856Z,99.99
2024-02-19T19:50:45.734Z,99.99
2024-02-19T19:51:45.744Z,99.99
2024-02-19T19:52:45.743Z,99.99
2024-02-19T19:53:45.739Z,99.99
2024-02-19T19:54:45.783Z,99.99
2024-02-19T19:55:45.698Z,99.99
2024-02-19T19:56:45.633Z,99.99
2024-02-19T19:57:45.699Z,99.99
2024-02-19T19:58:45.780Z,99.99
2024-02-19T20:04:54.947Z,99.99
2024-02-19T20:05:55.864Z,99.99
2024-02-19T20:06:55.941Z,99.99
2024-02-19T20:07:55.781Z,99.99
2024-02-19T20:08:55.761Z,99.99
2024-02-19T20:09:55.723Z,99.89
2024-02-19T20:10:55.735Z,99.79
2024-02-19T20:11:55.621Z,99.79
2024-02-19T20:12:55.702Z,99.89
2024-02-19T20:13:55.630Z,99.89
2024-02-19T20:14:57.162Z,99.99
2024-02-19T20:15:55.655Z,99.99
2024-02-19T20:16:55.583Z,99.99
2024-02-19T20:17:55.553Z,99.99
2024-02-19T20:18:55.701Z,99.99
2024-02-19T20:19:55.628Z,99.99
2024-02-19T20:20:55.549Z,99.99
2024-02-19T20:21:55.546Z,99.99
2024-02-19T20:22:55.489Z,99.99
2024-02-19T20:23:55.519Z,99.99
2024-02-19T20:24:55.530Z,99.99
2024-02-19T20:25:55.475Z,99.99
2024-02-19T20:26:55.456Z,99.99
2024-02-19T20:27:55.503Z,99.99
2024-02-19T20:28:55.499Z,99.99
2024-02-19T20:29:55.474Z,99.99
2024-02-19T20:30:55.502Z,99.99
2024-02-19T20:31:55.467Z,99.99
2024-02-19T20:32:55.542Z,99.99
2024-02-19T20:33:55.558Z,99.99
2024-02-19T20:34:55.457Z,99.99
2024-02-19T20:35:55.507Z,99.99
2024-02-19T20:36:55.495Z,99.99
2024-02-19T20:37:55.333Z,99.99
2024-02-19T20:38:55.363Z,99.99
2024-02-19T20:39:55.371Z,99.99
2024-02-19T20:40:55.441Z,99.99
2024-02-19T20:41:55.294Z,99.99
2024-02-19T20:42:56.878Z,99.99
2024-02-19T20:43:55.376Z,99.99
2024-02-19T20:44:55.271Z,99.99
2024-02-19T20:45:55.337Z,99.99
2024-02-19T20:46:55.346Z,99.99
2024-02-19T20:47:55.473Z,99.99
2024-02-19T20:48:55.319Z,99.99
2024-02-19T20:49:55.354Z,99.99
2024-02-19T20:50:55.207Z,99.99
2024-02-19T20:51:55.238Z,99.99
2024-02-19T20:52:55.196Z,99.99
2024-02-19T20:53:55.197Z,99.99
2024-02-19T20:54:55.227Z,99.99
2024-02-19T20:55:55.178Z,99.99
2024-02-19T20:56:55.123Z,99.99
2024-02-19T20:57:55.358Z,99.99
2024-02-19T20:58:55.096Z,99.99
2024-02-19T20:59:55.352Z,99.99
2024-02-19T21:00:55.249Z,99.99
2024-02-19T21:01:55.216Z,99.99
2024-02-19T21:02:55.080Z,99.95
2024-02-19T21:03:55.243Z,99.74
2024-02-19T21:04:55.126Z,99.63
2024-02-19T21:05:55.023Z,99.74
2024-02-19T21:06:55.127Z,99.74
2024-02-19T21:07:55.136Z,99.84
2024-02-19T21:08:55.024Z,99.63
2024-02-19T21:09:55.032Z,99.63
2024-02-19T21:10:55.009Z,99.74
2024-02-19T21:11:55.027Z,99.74
2024-02-19T21:12:54.961Z,99.79
2024-02-19T21:13:54.977Z,99.79
2024-02-19T21:14:54.959Z,99.89
2024-02-19T21:15:55.981Z,99.79
2024-02-19T21:16:54.960Z,99.68
2024-02-19T21:17:54.937Z,99.89
2024-02-19T21:18:55.019Z,99.99
2024-02-19T21:19:54.999Z,99.99
2024-02-19T21:20:54.954Z,99.99
2024-02-19T21:21:54.928Z,99.99
2024-02-19T21:22:54.957Z,99.99
2024-02-19T21:23:54.943Z,99.99
2024-02-19T21:24:54.909Z,99.99
2024-02-19T21:25:54.833Z,99.99
2024-02-19T21:26:56.427Z,99.99
2024-02-19T21:27:54.853Z,99.99
2024-02-19T21:28:54.817Z,99.99
2024-02-19T21:29:54.796Z,99.84
2024-02-19T21:30:54.758Z,99.95
2024-02-19T21:31:54.768Z,99.84
2024-02-19T21:32:54.783Z,99.84
2024-02-19T21:33:54.976Z,99.74
2024-02-19T21:34:54.876Z,99.54
2024-02-19T21:35:54.705Z,99.54
2024-02-19T21:36:54.749Z,99.74
2024-02-19T21:37:54.684Z,99.74
2024-02-19T21:38:54.707Z,99.43
2024-02-19T21:39:54.813Z,99.33
2024-02-19T21:40:54.680Z,99.33
2024-02-19T21:41:54.629Z,99.33
2024-02-19T21:42:54.683Z,99.43
2024-02-19T21:43:54.627Z,99.43
2024-02-19T21:44:54.664Z,99.54
2024-02-19T21:45:54.769Z,99.54
2024-02-19T21:46:54.596Z,99.63
2024-02-19T21:47:54.705Z,99.63
2024-02-19T21:48:54.711Z,99.54
2024-02-19T21:49:54.631Z,99.54
2024-02-19T21:50:54.552Z,99.63
2024-02-19T21:51:54.539Z,99.84
2024-02-19T21:52:54.650Z,99.84
2024-02-19T21:53:54.634Z,99.74
2024-02-19T21:54:54.656Z,99.33
2024-02-19T21:55:54.481Z,99.33
2024-02-19T21:56:54.461Z,99.22
2024-02-19T21:57:54.518Z,99.22
2024-02-19T21:58:54.564Z,99.33
2024-02-19T21:59:54.496Z,99.33
2024-02-19T22:00:54.449Z,99.43
2024-02-19T22:01:54.539Z,99.54
2024-02-19T22:02:54.397Z,99.54
2024-02-19T22:03:54.734Z,99.54
2024-02-19T22:04:54.508Z,99.54
2024-02-19T22:05:54.391Z,99.54
2024-02-19T22:06:54.384Z,99.43